createdAt,value
2022-07-30T00:01:36.027Z,99.90
2022-07-30T00:04:05.705Z,99.90
2022-07-30T00:06:34.424Z,99.90
2022-07-30T00:09:03.144Z,99.90
2022-07-30T00:11:32.094Z,99.90
2022-07-30T00:14:00.983Z,99.90
2022-07-30T00:16:29.716Z,99.90
2022-07-30T00:18:58.763Z,99.90
2022-07-30T00:21:35.703Z,99.90
2022-07-30T00:24:06.055Z,99.90
2022-07-30T00:26:34.895Z,99.90
2022-07-30T00:29:05.141Z,99.90
2022-07-30T00:31:34.079Z,99.90
2022-07-30T00:34:02.822Z,99.90
2022-07-30T00:36:31.525Z,99.90
2022-07-30T00:39:00.542Z,99.90
2022-07-30T00:41:30.305Z,99.90
2022-07-30T00:43:58.894Z,99.90
2022-07-30T00:46:27.881Z,99.90
2022-07-30T00:48:56.534Z,99.90
2022-07-30T00:51:25.380Z,99.90
2022-07-30T00:53:54.472Z,99.90
2022-07-30T00:56:23.261Z,99.90
2022-07-30T00:58:52.015Z,99.90
2022-07-30T01:01:21.483Z,99.90
2022-07-30T01:03:50.093Z,99.90
2022-07-30T01:06:18.771Z,99.90
2022-07-30T01:08:47.661Z,99.90
2022-07-30T01:11:16.595Z,99.90
2022-07-30T01:13:45.342Z,99.90
2022-07-30T01:16:15.160Z,99.90
2022-07-30T01:19:02.849Z,99.90
2022-07-30T01:21:37.955Z,99.90
2022-07-30T01:24:39.044Z,99.90
2022-07-30T01:27:08.061Z,99.90
2022-07-30T01:29:37.411Z,99.90
2022-07-30T01:32:07.850Z,99.90
2022-07-30T01:34:36.771Z,99.90
2022-07-30T01:37:05.752Z,99.90
2022-07-30T01:39:34.521Z,99.90
2022-07-30T01:42:05.950Z,99.90
2022-07-30T01:44:34.671Z,99.90
2022-07-30T01:47:04.445Z,99.90
2022-07-30T01:49:34.030Z,99.90
2022-07-30T01:52:04.625Z,99.90
2022-07-30T01:54:33.811Z,99.90
2022-07-30T01:57:02.862Z,99.90
2022-07-30T01:59:34.090Z,99.90
2022-07-30T02:02:03.091Z,99.90
2022-07-30T02:04:31.782Z,99.90
2022-07-30T02:07:24.972Z,99.90
2022-07-30T02:10:06.463Z,99.90
2022-07-30T02:12:54.422Z,99.90
2022-07-30T02:15:51.210Z,99.90
2022-07-30T02:19:04.464Z,99.90
2022-07-30T02:21:49.627Z,99.90
2022-07-30T02:24:23.690Z,99.90
2022-07-30T02:26:57.634Z,99.90
2022-07-30T02:29:27.420Z,99.90
2022-07-30T02:31:57.368Z,99.90
2022-07-30T02:34:26.268Z,99.90
2022-07-30T02:36:54.913Z,99.90
2022-07-30T02:39:23.740Z,99.90
2022-07-30T02:41:52.385Z,99.90
2022-07-30T02:44:21.750Z,99.90
2022-07-30T02:46:50.676Z,99.90
2022-07-30T02:49:45.661Z,99.90
2022-07-30T02:52:15.360Z,99.90
2022-07-30T02:54:44.221Z,99.90
2022-07-30T02:57:13.093Z,99.90
2022-07-30T02:59:42.130Z,99.90
2022-07-30T03:02:11.029Z,99.90
2022-07-30T03:04:44.040Z,99.90
2022-07-30T03:07:17.922Z,99.90
2022-07-30T03:09:52.260Z,99.90
2022-07-30T03:12:22.110Z,99.90
2022-07-30T03:14:52.232Z,99.90
2022-07-30T03:17:20.929Z,99.90
2022-07-30T03:19:49.710Z,99.90
2022-07-30T03:22:18.742Z,99.90
2022-07-30T03:24:47.433Z,99.90
2022-07-30T03:27:16.892Z,99.90
2022-07-30T03:29:46.270Z,99.90
2022-07-30T03:32:15.114Z,99.90
2022-07-30T03:34:43.943Z,99.90
2022-07-30T03:37:16.058Z,99.90
2022-07-30T03:39:44.850Z,99.90
2022-07-30T03:42:14.213Z,99.90
2022-07-30T03:44:46.091Z,99.90
2022-07-30T03:47:16.138Z,99.90
2022-07-30T03:49:49.541Z,99.90
2022-07-30T03:52:19.704Z,99.90
2022-07-30T03:54:48.810Z,99.90
2022-07-30T03:57:44.140Z,99.90
2022-07-30T04:00:15.211Z,99.90
2022-07-30T04:02:49.931Z,99.90
2022-07-30T04:05:40.956Z,99.90
2022-07-30T04:08:11.172Z,99.90
2022-07-30T04:10:40.831Z,99.90
2022-07-30T04:13:35.791Z,99.90
2022-07-30T04:16:39.617Z,99.90
2022-07-30T04:19:00.695Z,99.90
2022-07-30T04:21:29.311Z,99.90
2022-07-30T04:24:03.599Z,99.90
2022-07-30T04:26:35.774Z,99.90
2022-07-30T04:29:08.694Z,99.90
2022-07-30T04:31:40.847Z,99.90
2022-07-30T04:34:36.523Z,99.90
2022-07-30T04:37:09.648Z,99.90
2022-07-30T04:39:38.342Z,99.90
2022-07-30T04:42:07.089Z,99.90
2022-07-30T04:44:38.381Z,99.90
2022-07-30T04:47:30.201Z,99.90
2022-07-30T04:50:19.001Z,99.90
2022-07-30T04:52:48.835Z,99.90
2022-07-30T04:55:25.921Z,99.90
2022-07-30T04:57:54.792Z,99.90
2022-07-30T05:00:23.950Z,99.90
2022-07-30T05:02:53.010Z,99.90
2022-07-30T05:05:25.202Z,99.90
2022-07-30T05:07:56.645Z,99.90
2022-07-30T05:10:25.931Z,99.90
2022-07-30T05:12:54.874Z,99.90
2022-07-30T05:15:36.251Z,99.90
2022-07-30T05:18:09.171Z,99.90
2022-07-30T05:20:41.694Z,99.90
2022-07-30T05:23:16.692Z,99.90
2022-07-30T05:25:52.693Z,99.90
2022-07-30T05:28:39.581Z,99.90
2022-07-30T05:31:13.552Z,99.90
2022-07-30T05:33:53.186Z,99.90
2022-07-30T05:36:27.594Z,99.90
2022-07-30T05:38:57.182Z,99.90
2022-07-30T05:41:35.664Z,99.90
2022-07-30T05:44:04.506Z,99.90
2022-07-30T05:46:33.268Z,99.90
2022-07-30T05:49:02.333Z,99.90
2022-07-30T05:51:31.105Z,99.90
2022-07-30T05:53:59.912Z,99.90
2022-07-30T05:56:43.366Z,99.90
2022-07-30T05:59:35.263Z,99.90
2022-07-30T06:02:09.783Z,99.90
2022-07-30T06:05:04.865Z,99.90
2022-07-30T06:07:34.052Z,99.90
2022-07-30T06:10:05.953Z,99.90
2022-07-30T06:12:35.054Z,99.90
2022-07-30T06:15:05.155Z,99.90
2022-07-30T06:17:51.021Z,99.90
2022-07-30T06:20:38.743Z,99.90
2022-07-30T06:23:19.599Z,99.90
2022-07-30T06:26:02.364Z,99.90
2022-07-30T06:28:39.661Z,99.90
2022-07-30T06:31:18.443Z,99.90
2022-07-30T06:33:48.276Z,99.90
2022-07-30T06:36:17.741Z,99.90
2022-07-30T06:39:11.433Z,99.90
2022-07-30T06:42:00.003Z,99.90
2022-07-30T06:44:32.062Z,99.90
2022-07-30T06:47:32.113Z,99.90
2022-07-30T06:50:03.184Z,99.90
2022-07-30T06:52:33.848Z,99.90
2022-07-30T06:55:03.774Z,99.90
2022-07-30T06:57:42.843Z,99.90
2022-07-30T07:00:31.853Z,99.90
2022-07-30T07:03:10.004Z,99.90
2022-07-30T07:05:40.914Z,99.90
2022-07-30T07:08:09.683Z,99.90
2022-07-30T07:10:43.443Z,99.90
2022-07-30T07:13:44.413Z,99.90
2022-07-30T07:16:22.235Z,99.90
2022-07-30T07:18:53.493Z,99.90
2022-07-30T07:21:22.573Z,99.90
2022-07-30T07:23:53.547Z,99.90
2022-07-30T07:26:51.733Z,99.90
2022-07-30T07:29:22.153Z,99.90
2022-07-30T07:32:05.050Z,99.90
2022-07-30T07:34:37.605Z,99.90
2022-07-30T07:37:06.375Z,99.90
2022-07-30T07:39:38.337Z,99.90
2022-07-30T07:42:09.874Z,99.90
2022-07-30T07:44:41.321Z,99.90
2022-07-30T07:47:10.744Z,99.90
2022-07-30T07:49:46.023Z,99.90
2022-07-30T07:52:15.153Z,99.90
2022-07-30T07:54:45.153Z,99.90
2022-07-30T07:57:15.360Z,99.90
2022-07-30T07:59:44.986Z,99.90
2022-07-30T08:02:26.052Z,99.90
2022-07-30T08:05:06.133Z,99.90
2022-07-30T08:07:52.159Z,99.90
2022-07-30T08:10:39.467Z,99.90
2022-07-30T08:13:51.877Z,99.90
2022-07-30T08:16:40.628Z,99.90
2022-07-30T08:19:12.520Z,99.90
2022-07-30T08:21:51.821Z,99.90
2022-07-30T08:24:20.641Z,99.90
2022-07-30T08:26:49.273Z,99.90
2022-07-30T08:29:18.713Z,99.90
2022-07-30T08:31:48.129Z,99.90
2022-07-30T08:34:16.974Z,99.90
2022-07-30T08:36:45.883Z,99.90
2022-07-30T08:39:14.453Z,99.90
2022-07-30T08:41:43.136Z,99.90
2022-07-30T08:44:13.145Z,99.90
2022-07-30T08:46:47.148Z,99.90
2022-07-30T08:49:37.812Z,99.90
2022-07-30T08:52:09.112Z,99.90
2022-07-30T08:54:52.096Z,99.90
2022-07-30T08:57:20.953Z,99.90
2022-07-30T08:59:59.196Z,99.90
2022-07-30T09:02:33.861Z,99.90
2022-07-30T09:05:07.820Z,99.90
2022-07-30T09:07:37.318Z,99.90
2022-07-30T09:10:09.837Z,99.90
2022-07-30T09:12:44.635Z,99.90
2022-07-30T09:15:20.524Z,99.90
2022-07-30T09:17:57.786Z,99.90
2022-07-30T09:20:35.535Z,99.90
2022-07-30T09:23:08.123Z,99.90
2022-07-30T09:25:57.214Z,99.90
2022-07-30T09:28:44.682Z,99.90
2022-07-30T09:31:17.632Z,99.90
2022-07-30T09:34:39.010Z,99.90
2022-07-30T09:37:12.651Z,99.90
2022-07-30T09:40:00.465Z,99.90
2022-07-30T09:42:41.373Z,99.90
2022-07-30T09:45:14.887Z,99.90
2022-07-30T09:47:48.722Z,99.90
2022-07-30T09:50:30.445Z,99.90
2022-07-30T09:53:12.020Z,99.90
2022-07-30T09:55:45.192Z,99.90
2022-07-30T09:58:20.006Z,99.90
2022-07-30T10:01:00.727Z,99.90
2022-07-30T10:03:58.493Z,99.90
2022-07-30T10:06:50.465Z,99.90
2022-07-30T10:09:37.067Z,99.90
2022-07-30T10:12:11.562Z,99.90
2022-07-30T10:14:47.144Z,99.90
2022-07-30T10:17:19.351Z,99.90
2022-07-30T10:20:15.197Z,99.90
2022-07-30T10:22:48.088Z,99.90
2022-07-30T10:25:28.120Z,99.90
2022-07-30T10:28:16.514Z,99.90
2022-07-30T10:30:45.604Z,99.90
2022-07-30T10:33:36.446Z,99.90
2022-07-30T10:36:04.261Z,99.90
2022-07-30T10:38:39.074Z,99.90
2022-07-30T10:41:43.342Z,99.90
2022-07-30T10:44:32.593Z,99.90
2022-07-30T10:47:06.899Z,99.90
2022-07-30T10:49:41.283Z,99.90
2022-07-30T10:52:12.786Z,99.90
2022-07-30T10:54:47.914Z,99.90
2022-07-30T10:57:22.715Z,99.90
2022-07-30T11:00:03.714Z,99.90
2022-07-30T11:02:35.943Z,99.90
2022-07-30T11:05:32.068Z,99.90
2022-07-30T11:08:43.026Z,99.90
2022-07-30T11:11:37.027Z,99.90
2022-07-30T11:14:13.245Z,99.90
2022-07-30T11:16:42.138Z,99.90
2022-07-30T11:19:55.834Z,99.90
2022-07-30T11:22:39.591Z,99.90
2022-07-30T11:25:50.652Z,99.90
2022-07-30T11:28:41.113Z,99.90
2022-07-30T11:31:56.590Z,99.90
2022-07-30T11:34:26.040Z,99.90
2022-07-30T11:37:22.305Z,99.90
2022-07-30T11:40:04.014Z,99.90
2022-07-30T11:42:35.031Z,99.90
2022-07-30T11:45:27.335Z,99.90
2022-07-30T11:47:58.241Z,99.90
2022-07-30T11:50:30.491Z,99.90
2022-07-30T11:53:20.220Z,99.90
2022-07-30T11:56:01.251Z,99.90
2022-07-30T11:58:37.560Z,99.90
2022-07-30T12:01:14.359Z,99.90
2022-07-30T12:03:44.942Z,99.90
2022-07-30T12:06:20.401Z,99.90
2022-07-30T12:08:55.109Z,99.90
2022-07-30T12:11:33.654Z,99.90
2022-07-30T12:14:02.531Z,99.90
2022-07-30T12:16:33.093Z,99.90
2022-07-30T12:19:09.483Z,99.90
2022-07-30T12:21:38.783Z,99.90
2022-07-30T12:24:07.994Z,99.90
2022-07-30T12:26:36.681Z,99.30
2022-07-30T12:29:13.945Z,98.70
2022-07-30T12:31:42.837Z,98.50
2022-07-30T12:34:25.905Z,98.20
2022-07-30T12:36:55.416Z,98.50
2022-07-30T12:39:28.304Z,98.00
2022-07-30T12:41:57.222Z,97.80
2022-07-30T12:44:45.128Z,94.30
2022-07-30T12:47:25.331Z,92.90
2022-07-30T12:49:56.327Z,92.80
2022-07-30T12:52:31.205Z,92.20
2022-07-30T12:55:07.369Z,91.70
2022-07-30T12:58:07.204Z,91.50
2022-07-30T13:00:52.474Z,92.40
2022-07-30T13:03:28.827Z,92.30
2022-07-30T13:05:58.111Z,92.60
2022-07-30T13:08:45.603Z,91.50
2022-07-30T13:11:14.753Z,91.50
2022-07-30T13:13:43.563Z,91.50
2022-07-30T13:16:12.491Z,91.60
2022-07-30T13:18:41.447Z,93.50
2022-07-30T13:21:10.339Z,94.30
2022-07-30T13:23:40.379Z,94.50
2022-07-30T13:26:10.269Z,94.70
2022-07-30T13:28:39.077Z,94.90
2022-07-30T13:31:08.097Z,94.70
2022-07-30T13:33:37.767Z,94.00
2022-07-30T13:36:07.459Z,94.20
2022-07-30T13:38:36.451Z,94.10
2022-07-30T13:41:06.148Z,93.90
2022-07-30T13:43:34.799Z,93.30
2022-07-30T13:46:04.920Z,92.70
2022-07-30T13:48:33.951Z,92.00
2022-07-30T13:51:03.018Z,91.80
2022-07-30T13:53:32.397Z,91.10
2022-07-30T13:56:01.236Z,90.40
2022-07-30T13:58:35.504Z,89.90
2022-07-30T14:01:07.549Z,89.30
2022-07-30T14:03:36.507Z,89.80
2022-07-30T14:06:10.695Z,89.20
2022-07-30T14:08:40.375Z,87.90
2022-07-30T14:11:09.116Z,87.20
2022-07-30T14:13:38.248Z,86.50
2022-07-30T14:16:18.090Z,85.60
2022-07-30T14:18:57.875Z,85.20
2022-07-30T14:21:26.968Z,84.40
2022-07-30T14:23:56.565Z,84.70
2022-07-30T14:26:25.321Z,84.40
2022-07-30T14:28:59.260Z,83.90
2022-07-30T14:31:27.916Z,83.40
2022-07-30T14:33:57.127Z,82.20
2022-07-30T14:36:30.166Z,80.70
2022-07-30T14:38:58.877Z,79.40
2022-07-30T14:41:28.541Z,78.80
2022-07-30T14:43:57.229Z,78.20
2022-07-30T14:46:25.968Z,77.30
2022-07-30T14:48:55.058Z,76.60
2022-07-30T14:51:26.337Z,76.10
2022-07-30T14:53:57.987Z,75.30
2022-07-30T14:56:26.717Z,74.50
2022-07-30T14:58:55.410Z,74.60
2022-07-30T15:01:24.401Z,75.10
2022-07-30T15:03:53.138Z,75.60
2022-07-30T15:06:21.790Z,77.10
2022-07-30T15:08:50.747Z,77.30
2022-07-30T15:11:21.867Z,77.80
2022-07-30T15:13:50.912Z,78.40
2022-07-30T15:16:20.009Z,77.60
2022-07-30T15:18:48.706Z,77.20
2022-07-30T15:21:17.406Z,77.60
2022-07-30T15:23:46.418Z,74.60
2022-07-30T15:26:15.078Z,74.10
2022-07-30T15:28:43.696Z,74.10
2022-07-30T15:31:12.621Z,73.90
2022-07-30T15:33:45.230Z,74.50
2022-07-30T15:36:14.346Z,74.50
2022-07-30T15:38:43.806Z,74.80
2022-07-30T15:41:15.147Z,74.30
2022-07-30T15:43:46.836Z,73.60
2022-07-30T15:46:15.808Z,73.00
2022-07-30T15:48:44.526Z,72.00
2022-07-30T15:51:13.299Z,70.60
2022-07-30T15:53:45.300Z,68.60
2022-07-30T15:56:15.078Z,68.20
2022-07-30T15:58:43.797Z,68.20
2022-07-30T16:01:13.339Z,69.30
2022-07-30T16:03:41.976Z,70.20
2022-07-30T16:06:10.829Z,71.70
2022-07-30T16:08:39.816Z,71.90
2022-07-30T16:11:11.012Z,71.00
2022-07-30T16:13:39.860Z,71.50
2022-07-30T16:16:08.747Z,72.40
2022-07-30T16:18:37.439Z,71.30
2022-07-30T16:21:06.217Z,71.60
2022-07-30T16:23:36.549Z,71.00
2022-07-30T16:26:06.170Z,70.20
2022-07-30T16:28:34.867Z,69.10
2022-07-30T16:31:04.577Z,68.80
2022-07-30T16:33:33.206Z,69.00
2022-07-30T16:36:01.857Z,69.10
2022-07-30T16:38:31.386Z,69.70
2022-07-30T16:41:00.637Z,69.80
2022-07-30T16:43:32.178Z,69.60
2022-07-30T16:46:01.240Z,69.40
2022-07-30T16:48:32.389Z,69.20
2022-07-30T16:51:01.059Z,70.80
2022-07-30T16:53:30.069Z,71.60
2022-07-30T16:55:58.933Z,72.50
2022-07-30T16:58:28.304Z,73.80
2022-07-30T17:01:01.998Z,76.50
2022-07-30T17:03:30.789Z,77.90
2022-07-30T17:05:59.481Z,80.20
2022-07-30T17:08:28.429Z,80.10
2022-07-30T17:10:57.301Z,80.50
2022-07-30T17:13:26.889Z,80.40
2022-07-30T17:15:55.849Z,80.40
2022-07-30T17:18:24.440Z,80.40
2022-07-30T17:20:54.107Z,80.90
2022-07-30T17:23:23.053Z,81.20
2022-07-30T17:25:51.733Z,81.90
2022-07-30T17:28:24.330Z,80.80
2022-07-30T17:30:56.073Z,79.90
2022-07-30T17:33:24.634Z,79.30
2022-07-30T17:35:53.240Z,79.30
2022-07-30T17:38:22.037Z,79.90
2022-07-30T17:40:50.545Z,80.60
2022-07-30T17:43:19.329Z,80.70
2022-07-30T17:45:48.146Z,81.00
2022-07-30T17:48:18.290Z,81.10
2022-07-30T17:50:46.867Z,80.80
2022-07-30T17:53:15.616Z,81.10
2022-07-30T17:55:57.379Z,81.20
2022-07-30T17:58:27.123Z,81.40
2022-07-30T18:00:56.202Z,81.80
2022-07-30T18:03:25.553Z,82.30
2022-07-30T18:05:56.443Z,82.70
2022-07-30T18:08:25.976Z,82.90
2022-07-30T18:10:55.154Z,83.40
2022-07-30T18:13:27.158Z,84.10
2022-07-30T18:15:56.520Z,84.60
2022-07-30T18:18:25.053Z,85.00
2022-07-30T18:20:53.523Z,85.30
2022-07-30T18:23:22.747Z,85.50
2022-07-30T18:25:53.323Z,85.90
2022-07-30T18:28:23.636Z,85.80
2022-07-30T18:30:52.223Z,86.10
2022-07-30T18:33:21.153Z,86.20
2022-07-30T18:35:50.855Z,86.50
2022-07-30T18:38:19.384Z,86.50
2022-07-30T18:40:57.911Z,86.40
2022-07-30T18:43:30.314Z,86.40
2022-07-30T18:46:00.598Z,86.20
2022-07-30T18:48:29.223Z,86.50
2022-07-30T18:50:57.725Z,86.90
2022-07-30T18:53:26.354Z,87.40
2022-07-30T18:55:55.533Z,88.10
2022-07-30T18:58:24.143Z,88.60
2022-07-30T19:00:54.085Z,89.00
2022-07-30T19:03:23.322Z,88.90
2022-07-30T19:05:51.905Z,88.90
2022-07-30T19:08:20.345Z,89.00
2022-07-30T19:10:48.995Z,89.20
2022-07-30T19:13:17.716Z,89.80
2022-07-30T19:15:46.247Z,90.10
2022-07-30T19:18:15.503Z,90.40
2022-07-30T19:20:44.413Z,90.90
2022-07-30T19:23:15.376Z,91.40
2022-07-30T19:25:44.175Z,91.80
2022-07-30T19:28:14.304Z,92.30
2022-07-30T19:30:42.744Z,92.60
2022-07-30T19:33:15.502Z,93.00
2022-07-30T19:35:44.544Z,93.30
2022-07-30T19:41:01.618Z,93.80
2022-07-30T19:43:33.693Z,94.10
2022-07-30T19:46:02.263Z,94.20
2022-07-30T19:48:32.585Z,94.40
2022-07-30T19:51:01.870Z,94.40
2022-07-30T19:53:31.235Z,94.70
2022-07-30T19:56:08.263Z,94.40
2022-07-30T19:58:40.291Z,94.50
2022-07-30T20:01:11.285Z,94.50
2022-07-30T20:03:40.152Z,94.50
2022-07-30T20:06:08.924Z,94.50
2022-07-30T20:08:44.866Z,94.50
2022-07-30T20:11:20.836Z,94.50
2022-07-30T20:13:50.213Z,94.60
2022-07-30T20:16:18.683Z,94.50
2022-07-30T20:18:48.463Z,94.50
2022-07-30T20:21:20.854Z,94.50
2022-07-30T20:24:09.733Z,94.50
2022-07-30T20:26:38.513Z,94.50
2022-07-30T20:29:09.209Z,94.40
2022-07-30T20:31:49.713Z,94.40
2022-07-30T20:34:23.448Z,94.30
2022-07-30T20:36:52.606Z,94.20
2022-07-30T20:39:24.013Z,94.20
2022-07-30T20:42:08.121Z,94.10
2022-07-30T20:44:43.085Z,94.00
2022-07-30T20:47:12.636Z,93.90
2022-07-30T20:49:43.392Z,93.70
2022-07-30T20:52:12.104Z,93.50
2022-07-30T20:54:45.086Z,93.40
2022-07-30T20:57:15.751Z,93.30
2022-07-30T20:59:44.433Z,93.40
2022-07-30T21:02:15.174Z,92.90
2022-07-30T21:04:46.311Z,92.80
2022-07-30T21:07:20.683Z,92.70
2022-07-30T21:09:52.631Z,92.40
2022-07-30T21:12:32.800Z,92.30
2022-07-30T21:15:02.215Z,92.30
2022-07-30T21:17:31.648Z,92.00
2022-07-30T21:20:02.044Z,91.90
2022-07-30T21:22:30.703Z,91.70
2022-07-30T21:24:59.898Z,91.00
2022-07-30T21:27:30.097Z,90.80
2022-07-30T21:29:59.202Z,90.90
2022-07-30T21:32:28.978Z,90.70
2022-07-30T21:34:57.634Z,90.30
2022-07-30T21:37:36.705Z,90.10
2022-07-30T21:40:06.917Z,90.00
2022-07-30T21:42:48.209Z,90.00
2022-07-30T21:45:17.807Z,90.00
2022-07-30T21:47:48.135Z,89.50
2022-07-30T21:50:16.898Z,89.20
2022-07-30T21:52:45.317Z,89.30
2022-07-30T21:55:14.096Z,89.30
2022-07-30T21:57:42.637Z,89.40
2022-07-30T22:00:16.607Z,90.00
2022-07-30T22:02:52.942Z,90.30
2022-07-30T22:05:23.746Z,90.70
2022-07-30T22:08:08.438Z,90.90
2022-07-30T22:10:41.287Z,91.20
2022-07-30T22:13:11.546Z,91.50
2022-07-30T22:15:45.579Z,91.70
2022-07-30T22:18:17.636Z,91.90
2022-07-30T22:20:52.183Z,92.10
2022-07-30T22:23:21.667Z,92.30
2022-07-30T22:25:50.906Z,92.60
2022-07-30T22:28:28.898Z,92.60
2022-07-30T22:30:57.376Z,92.80
2022-07-30T22:33:26.231Z,93.20
2022-07-30T22:35:56.180Z,92.90
2022-07-30T22:38:25.266Z,93.00
2022-07-30T22:40:54.687Z,93.10
2022-07-30T22:43:33.299Z,93.20
2022-07-30T22:46:27.204Z,93.30
2022-07-30T22:48:59.164Z,93.40
2022-07-30T22:51:59.314Z,93.60
2022-07-30T22:54:17.345Z,93.70
2022-07-30T22:56:47.912Z,93.70
2022-07-30T22:59:16.556Z,93.70
2022-07-30T23:02:05.511Z,93.80
2022-07-30T23:04:41.074Z,94.00
2022-07-30T23:07:13.957Z,94.10
2022-07-30T23:09:51.509Z,94.30
2022-07-30T23:12:14.709Z,93.60
2022-07-30T23:12:21.826Z,94.40
2022-07-30T23:14:50.365Z,94.50
2022-07-30T23:17:19.030Z,94.50
2022-07-30T23:19:47.855Z,94.70
2022-07-30T23:22:16.420Z,94.80
2022-07-30T23:24:45.085Z,94.80
2022-07-30T23:27:13.898Z,94.80
2022-07-30T23:29:42.323Z,94.90
2022-07-30T23:32:10.742Z,94.90
2022-07-30T23:34:39.400Z,95.00
2022-07-30T23:37:10.678Z,95.00
2022-07-30T23:39:43.763Z,95.00
2022-07-30T23:42:12.151Z,95.40
2022-07-30T23:44:40.556Z,95.10
2022-07-30T23:47:09.241Z,95.00
2022-07-30T23:49:37.636Z,95.00
2022-07-30T23:52:06.219Z,94.80
2022-07-30T23:54:34.883Z,94.70
2022-07-30T23:57:04.518Z,94.80
2022-07-30T23:59:40.323Z,94.80
